Time;durP1;ratioP1;P1;durP2;ratioP2;P2;SDS_P1;SDS_P2;PMS_P1;PMS_P2;Temp;Humidity;BMP_temperature;BMP_pressure;BME280_temperature;BME280_humidity;BME280_pressure;Samples;Min_cycle;Max_cycle;Signal;HPM_P1;HPM_P2
2022/07/25 00:04:19;;;;;;;29.60;13.77;;;;;;;21.43;63.45;98803.59;4938178;29;20028;-91
2022/07/25 00:06:47;;;;;;;23.05;13.63;;;;;;;21.39;64.02;98796.44;4923059;29;20043;-91
2022/07/25 00:09:14;;;;;;;28.67;13.43;;;;;;;21.21;65.38;98783.31;4957521;29;20089;-91
2022/07/25 00:12:00;;;;;;;32.95;13.27;;;;;;;21.40;65.21;98829.44;4916780;29;20024;-91
2022/07/25 00:14:44;;;;;;;;;;;;;;;21.45;65.62;98833.78;4944049;29;20032;-91
2022/07/25 00:17:21;;;;;;;30.88;13.88;;;;;;;20.91;65.96;98769.03;4924097;29;19949;-90
2022/07/25 00:19:53;;;;;;;25.08;13.73;;;;;;;21.27;66.37;98836.53;4938468;29;20071;-91
2022/07/25 00:22:23;;;;;;;24.85;13.55;;;;;;;21.05;66.23;98805.16;4935426;28;20051;-91
2022/07/25 00:24:49;;;;;;;26.17;13.88;;;;;;;21.14;66.63;98833.34;4974134;28;20042;-90
2022/07/25 00:27:19;;;;;;;35.00;13.50;;;;;;;20.64;66.61;98763.84;4967743;28;20031;-91
2022/07/25 00:29:51;;;;;;;23.73;13.90;;;;;;;20.91;66.92;98819.03;4940844;28;20119;-91
2022/07/25 00:32:19;;;;;;;35.63;14.25;;;;;;;20.54;67.39;98757.06;5001977;23;20055;-88
2022/07/25 00:34:45;;;;;;;32.28;14.75;;;;;;;20.94;67.83;98829.38;4999691;23;20065;-90
2022/07/25 00:38:05;;;;;;;23.70;13.55;;;;;;;20.87;67.57;98819.03;4979554;28;20118;-91
2022/07/25 00:41:01;;;;;;;27.40;13.48;;;;;;;20.29;68.38;98751.41;4975055;28;20045;-91
2022/07/25 00:43:51;;;;;;;28.02;14.70;;;;;;;20.73;68.58;98825.34;4954949;23;20051;-91
2022/07/25 00:46:40;;;;;;;29.98;15.05;;;;;;;20.18;68.48;98731.16;5001164;23;20066;-91
2022/07/25 00:49:59;;;;;;;36.70;14.75;;;;;;;20.69;68.13;98810.66;4980435;23;20058;-92
2022/07/25 00:52:40;;;;;;;27.80;15.02;;;;;;;20.24;68.38;98742.69;5015051;28;20025;-92
2022/07/25 00:55:11;;;;;;;33.45;15.20;;;;;;;20.28;68.40;98743.50;5000388;28;20080;-90
2022/07/25 00:57:40;;;;;;;34.65;16.15;;;;;;;20.60;68.35;98793.59;4999794;28;20122;-90
2022/07/25 01:00:22;;;;;;;32.95;15.05;;;;;;;20.53;68.46;98783.25;5083128;23;20043;-91
2022/07/25 01:03:02;;;;;;;37.40;15.68;;;;;;;20.58;68.24;98801.50;4968944;28;20022;-90
2022/07/25 01:05:34;;;;;;;36.88;16.48;;;;;;;20.47;68.54;98792.34;4994530;28;20046;-91
2022/07/25 01:08:07;;;;;;;27.52;15.60;;;;;;;20.17;69.02;98738.69;4977963;28;20018;-90
2022/07/25 01:10:38;;;;;;;27.95;15.65;;;;;;;20.53;68.80;98782.44;4994958;28;20137;-91
2022/07/25 01:13:04;;;;;;;38.70;16.50;;;;;;;20.41;68.71;98764.94;4973493;28;20038;-90
2022/07/25 01:15:31;;;;;;;36.83;16.08;;;;;;;20.21;68.90;98741.47;5002821;28;20085;-90
2022/07/25 01:18:14;;;;;;;33.60;15.45;;;;;;;20.48;69.07;98788.34;4955033;29;20082;-90
2022/07/25 01:20:41;;;;;;;37.00;16.77;;;;;;;20.09;69.47;98748.16;4937972;29;20019;-90
2022/07/25 01:23:08;;;;;;;33.17;17.10;;;;;;;20.29;69.51;98772.81;4953971;28;20031;-91
2022/07/25 01:26:20;;;;;;;31.40;16.83;;;;;;;20.22;69.36;98745.06;4977228;28;20082;-90
2022/07/25 01:29:25;;;;;;;34.67;16.48;;;;;;;20.32;69.27;98772.84;4974251;23;20042;-91
2022/07/25 01:31:52;;;;;;;32.38;17.50;;;;;;;20.13;69.67;98742.63;5019891;23;20066;-90
2022/07/25 01:34:24;;;;;;;34.72;16.73;;;;;;;20.44;69.93;98802.22;4985879;28;20026;-91
2022/07/25 01:36:50;;;;;;;32.30;16.35;;;;;;;20.34;69.44;98770.47;4967764;28;20788;-90
2022/07/25 01:40:00;;;;;;;38.30;16.48;;;;;;;20.28;68.85;98749.81;4982441;28;20034;-91
2022/07/25 01:42:31;;;;;;;40.97;16.60;;;;;;;20.53;69.08;98791.59;4988199;28;20043;-91
2022/07/25 01:46:06;;;;;;;30.85;16.10;;;;;;;20.78;68.80;98822.19;4959675;28;20061;-90
2022/07/25 01:48:33;;;;;;;33.10;17.20;;;;;;;20.25;68.93;98741.50;4942679;28;20140;-91
2022/07/25 01:51:27;;;;;;;37.33;16.80;;;;;;;20.34;69.21;98780.78;4975016;28;20051;-91
2022/07/25 01:53:59;;;;;;;35.25;17.95;;;;;;;20.30;69.54;98783.56;4946051;28;20030;-91
2022/07/25 01:56:41;;;;;;;46.50;17.88;;;;;;;20.52;69.24;98808.63;4948228;28;20048;-90
2022/07/25 01:59:26;;;;;;;48.15;18.67;;;;;;;20.39;69.53;98783.97;4970296;28;20034;-91
2022/07/25 02:02:15;;;;;;;45.70;18.95;;;;;;;20.39;69.49;98786.72;4951571;28;20026;-89
2022/07/25 02:04:41;;;;;;;39.80;18.20;;;;;;;20.14;69.48;98750.56;4941025;28;20104;-90
2022/07/25 02:07:08;;;;;;;46.92;18.60;;;;;;;20.04;69.49;98734.69;4961727;28;20129;-95
2022/07/25 02:09:35;;;;;;;37.92;17.83;;;;;;;20.14;69.68;98744.25;4935825;28;20603;-90
2022/07/25 02:12:10;;;;;;;49.00;18.02;;;;;;;20.25;69.90;98758.94;4972863;28;20031;-92
2022/07/25 02:15:04;;;;;;;39.80;19.00;;;;;;;20.24;69.82;98759.34;4980887;28;20031;-90
2022/07/25 02:17:34;;;;;;;39.45;18.23;;;;;;;20.46;69.73;98801.81;4956586;28;20121;-90
2022/07/25 02:20:04;;;;;;;40.88;18.88;;;;;;;20.35;70.00;98777.59;4986525;28;20042;-90
2022/07/25 02:22:31;;;;;;;47.80;19.73;;;;;;;20.26;69.89;98756.94;4986831;28;20022;-91
2022/07/25 02:25:00;;;;;;;46.85;18.88;;;;;;;20.47;69.71;98772.91;5007414;28;20089;-91
2022/07/25 02:28:05;;;;;;;;;;;;;;;;;;;;;
2022/07/25 02:30:39;;;;;;;51.45;19.05;;;;;;;20.61;69.48;98800.72;4994860;28;20042;-91
2022/07/25 02:33:08;;;;;;;49.63;20.42;;;;;;;20.35;69.65;98755.41;5014778;28;20018;-91
2022/07/25 02:35:37;;;;;;;48.83;19.95;;;;;;;20.65;69.39;98793.97;5001609;28;20034;-91
2022/07/25 02:38:05;;;;;;;40.13;19.92;;;;;;;20.45;69.63;98753.06;5005601;28;20117;-90
2022/07/25 02:41:14;;;;;;;43.00;19.23;;;;;;;20.55;69.26;98766.97;5014638;28;20050;-90
2022/07/25 02:43:50;;;;;;;56.95;20.70;;;;;;;20.35;69.68;98741.50;5025586;23;20057;-96
2022/07/25 02:46:18;;;;;;;49.47;19.75;;;;;;;20.71;69.64;98785.28;4979135;28;20080;-95
2022/07/25 02:48:46;;;;;;;42.15;19.63;;;;;;;20.58;69.68;98757.06;4984966;28;20018;-93
2022/07/25 02:51:12;;;;;;;47.55;19.75;;;;;;;20.86;69.03;98784.09;4976669;28;20099;-91
2022/07/25 02:53:58;;;;;;;45.55;18.88;;;;;;;20.81;68.54;98765.84;5017034;28;20042;-89
2022/07/25 02:56:28;;;;;;;36.85;18.05;;;;;;;21.00;68.13;98797.22;4992153;28;20045;-89
2022/07/25 02:58:57;;;;;;;39.67;17.90;;;;;;;21.02;67.60;98790.06;4997053;28;20061;-93
2022/07/25 03:01:25;;;;;;;33.10;16.30;;;;;;;21.00;66.32;98775.78;4982354;28;20053;-90
2022/07/25 03:03:51;;;;;;;37.67;15.00;;;;;;;21.22;66.42;98784.91;4969101;28;20085;-91
2022/07/25 03:06:27;;;;;;;33.47;15.60;;;;;;;21.23;66.05;98782.94;5041023;28;20042;-90
2022/07/25 03:08:55;;;;;;;25.65;15.52;;;;;;;21.16;65.52;98763.47;4983619;28;20088;-90
2022/07/25 03:11:38;;;;;;;26.60;14.25;;;;;;;21.12;64.93;98746.78;5009442;28;20050;-92
2022/07/25 03:14:08;;;;;;;29.30;14.45;;;;;;;21.51;64.97;98798.81;4986314;28;20054;-91
2022/07/25 03:17:16;;;;;;;31.63;14.50;;;;;;;21.62;64.88;98809.94;4984552;28;20099;-90
2022/07/25 03:19:46;;;;;;;23.08;13.50;;;;;;;21.26;64.94;98744.03;4942039;28;20065;-94
2022/07/25 03:22:13;;;;;;;30.35;14.25;;;;;;;21.66;64.38;98794.06;4972417;28;20082;-90
2022/07/25 03:24:46;;;;;;;22.70;12.65;;;;;;;21.57;64.23;98773.00;4973449;28;20094;-91
2022/07/25 03:27:12;;;;;;;27.42;13.43;;;;;;;21.57;63.77;98769.41;4974449;28;20090;-88
2022/07/25 03:29:45;;;;;;;24.73;12.90;;;;;;;21.63;64.13;98770.59;4972871;28;20095;-92
2022/07/25 03:32:11;;;;;;;25.23;12.73;;;;;;;21.86;63.55;98797.97;4956959;28;20174;-92
2022/07/25 03:34:37;;;;;;;26.58;12.98;;;;;;;21.84;63.58;98794.00;4955916;28;20564;-91
2022/07/25 03:37:21;;;;;;;25.92;12.75;;;;;;;21.80;63.26;98783.66;4992375;28;20058;-91
2022/07/25 03:40:00;;;;;;;27.27;13.02;;;;;;;22.01;63.00;98807.06;4989126;28;20035;-92
2022/07/25 03:42:26;;;;;;;29.98;13.73;;;;;;;22.00;63.28;98795.16;4946898;29;20024;-90
2022/07/25 03:45:22;;;;;;;25.35;12.57;;;;;;;21.79;63.16;98767.41;4957314;29;20045;-91
2022/07/25 03:48:20;;;;;;;25.20;13.23;;;;;;;22.08;62.90;98795.13;5076706;23;20055;-91
2022/07/25 03:51:10;;;;;;;36.38;13.85;;;;;;;22.15;63.40;98797.88;4989690;23;20132;-92
2022/07/25 03:56:47;;;;;;;27.73;14.25;;;;;;;22.42;63.50;98821.28;5030208;28;20049;-91
2022/07/25 03:59:18;;;;;;;25.67;14.20;;;;;;;22.25;63.32;98785.91;4997846;28;20030;-91
2022/07/25 04:02:14;;;;;;;26.88;13.45;;;;;;;22.29;63.23;98783.94;5030380;28;20030;-91
2022/07/25 04:04:50;;;;;;;24.42;13.52;;;;;;;22.43;62.21;98795.00;5022217;28;20050;-90
2022/07/25 04:07:27;;;;;;;26.02;13.68;;;;;;;22.20;61.91;98748.16;4991011;28;20439;-91
2022/07/25 04:09:55;;;;;;;26.45;13.98;;;;;;;22.34;62.48;98768.78;5020176;28;20053;-90
2022/07/25 04:12:26;;;;;;;28.17;13.93;;;;;;;22.54;61.99;98789.38;4998699;28;20038;-91
2022/07/25 04:17:45;;;;;;;25.85;13.38;;;;;;;22.52;61.73;98780.63;4970768;28;20074;-91
2022/07/25 04:21:06;;;;;;;29.38;14.45;;;;;;;22.84;62.43;98813.06;4957655;28;20076;-95
2022/07/25 04:24:01;;;;;;;24.30;12.90;;;;;;;22.75;61.77;98786.47;4989864;28;20018;-91
2022/07/25 04:26:45;;;;;;;20.30;13.18;;;;;;;22.72;61.58;98787.28;4949743;28;20190;-95
2022/07/25 04:29:58;;;;;;;;;;;;;;;22.94;62.32;98815.81;4924586;29;20056;-92
2022/07/25 04:32:25;;;;;;;33.75;15.30;;;;;;;22.69;62.16;98774.16;4877085;29;19927;-92
2022/07/25 04:34:56;;;;;;;34.05;15.40;;;;;;;22.71;61.84;98760.63;4915243;29;20055;-91
2022/07/25 04:37:23;;;;;;;36.25;15.02;;;;;;;22.89;62.53;98777.22;4897827;29;20103;-91
2022/07/25 04:39:49;;;;;;;35.30;15.00;;;;;;;22.87;62.10;98774.03;4909913;29;20514;-95
2022/07/25 04:42:21;;;;;;;41.72;14.95;;;;;;;23.19;62.21;98814.84;4919826;29;20048;-90
2022/07/25 04:44:47;;;;;;;48.30;14.00;;;;;;;23.10;61.22;98793.00;4885277;29;20108;-90
2022/07/25 04:47:13;;;;;;;32.38;14.00;;;;;;;23.18;61.79;98802.13;4908327;29;20052;-91
2022/07/25 04:49:40;;;;;;;27.60;14.98;;;;;;;23.07;61.62;98770.75;4922480;29;20513;-91
2022/07/25 04:52:07;;;;;;;35.13;14.45;;;;;;;23.07;61.07;98749.22;4904077;29;20051;-90
2022/07/25 04:54:34;;;;;;;55.42;15.90;;;;;;;23.06;60.84;98733.72;4883633;29;20147;-93
2022/07/25 04:57:00;;;;;;;29.40;13.73;;;;;;;23.45;60.79;98785.56;4879749;29;20044;-92
2022/07/25 04:59:26;;;;;;;35.92;14.38;;;;;;;23.45;60.43;98769.63;4874907;29;20442;-90
2022/07/25 05:01:52;;;;;;;35.17;14.88;;;;;;;23.56;60.81;98797.41;4910318;29;20052;-90
2022/07/25 05:04:19;;;;;;;30.17;14.65;;;;;;;23.35;60.49;98761.34;4881438;29;20589;-90
2022/07/25 05:06:47;;;;;;;29.90;13.20;;;;;;;23.55;60.57;98790.25;4893234;28;20055;-90
2022/07/25 05:09:13;;;;;;;37.65;15.30;;;;;;;23.60;60.07;98787.00;4914951;28;20125;-93
2022/07/25 05:11:39;;;;;;;32.17;14.73;;;;;;;23.42;60.03;98742.53;4956311;28;20039;-91
2022/07/25 05:14:33;;;;;;;36.13;14.23;;;;;;;23.96;60.75;98819.38;4939661;29;20094;-92
2022/07/25 05:16:59;;;;;;;30.23;14.50;;;;;;;23.75;59.68;98770.94;4887908;29;20056;-92
2022/07/25 05:19:37;;;;;;;33.90;15.23;;;;;;;23.63;59.07;98749.88;4895841;29;20108;-93
2022/07/25 05:22:25;;;;;;;38.08;15.38;;;;;;;23.67;60.33;98756.25;4893198;29;20131;-91
2022/07/25 05:25:31;;;;;;;34.07;15.30;;;;;;;23.89;59.36;98786.72;4901051;29;20140;-93
2022/07/25 05:27:58;;;;;;;30.25;15.52;;;;;;;23.83;59.42;98772.44;4888126;29;20052;-91
2022/07/25 05:30:24;;;;;;;30.88;15.23;;;;;;;23.88;59.97;98776.78;4889726;29;20036;-94
2022/07/25 05:33:29;;;;;;;30.38;15.00;;;;;;;23.95;60.36;98768.31;4920954;29;20055;-92
2022/07/25 05:36:09;;;;;;;29.30;14.65;;;;;;;23.99;59.64;98762.69;4910921;29;20048;-91
2022/07/25 05:38:36;;;;;;;35.05;15.35;;;;;;;23.87;60.00;98734.13;4901575;29;20048;-91
2022/07/25 05:41:02;;;;;;;127.90;73.85;;;;;;;23.95;58.47;98728.44;4904516;29;20062;-95
2022/07/25 05:43:34;;;;;;;440.75;181.43;;;;;;;24.04;58.15;98731.50;4915510;29;20131;-94
2022/07/25 05:46:22;;;;;;;339.27;169.30;;;;;;;24.39;58.86;98783.34;4895878;29;20531;-92
2022/07/25 05:49:05;;;;;;;205.55;110.38;;;;;;;24.43;57.96;98775.72;4874528;29;20079;-91
2022/07/25 05:51:56;;;;;;;920.55;499.40;;;;;;;24.30;58.22;98750.31;4859195;29;20246;-96
2022/07/25 05:54:23;;;;;;;438.58;211.77;;;;;;;24.35;56.87;98735.09;4909951;29;20055;-95
2022/07/25 05:56:53;;;;;;;1999.90;999.90;;;;;;;24.90;55.02;98801.03;4949474;23;20081;-89
2022/07/25 05:59:23;;;;;;;1999.90;988.92;;;;;;;24.63;55.10;98733.13;5001676;23;20062;-90
2022/07/25 06:01:53;;;;;;;1999.90;990.83;;;;;;;25.03;53.47;98767.66;4923591;29;20047;-89
2022/07/25 06:04:26;;;;;;;944.60;467.17;;;;;;;24.86;54.31;98730.38;4942676;28;20027;-91
2022/07/25 06:06:54;;;;;;;176.43;71.85;;;;;;;25.04;54.82;98746.88;4936435;29;20054;-95
2022/07/25 06:09:30;;;;;;;516.25;312.67;;;;;;;24.83;55.75;98715.25;4938841;23;20020;-96
2022/07/25 06:11:57;;;;;;;39.50;17.45;;;;;;;24.79;55.23;98722.09;5063778;23;20034;-91
2022/07/25 06:14:27;;;;;;;1641.60;647.85;;;;;;;24.85;56.36;98721.19;5101277;23;20060;-91
2022/07/25 06:16:55;;;;;;;1467.28;638.70;;;;;;;24.94;56.23;98728.28;4985104;28;20046;-96
2022/07/25 06:19:29;;;;;;;402.83;135.93;;;;;;;25.15;57.65;98743.94;4983440;28;20101;-95
2022/07/25 06:22:29;;;;;;;157.57;63.30;;;;;;;24.97;55.80;98719.81;4980251;23;20046;-91
2022/07/25 06:24:55;;;;;;;44.85;22.05;;;;;;;25.09;55.60;98724.78;5090956;23;20038;-90
2022/07/25 06:27:22;;;;;;;30.77;16.60;;;;;;;25.49;55.22;98760.50;5005775;23;20084;-96
2022/07/25 06:30:09;;;;;;;43.50;15.65;;;;;;;25.53;54.38;98755.66;4983265;28;20492;-96
2022/07/25 06:32:50;;;;;;;35.03;14.57;;;;;;;25.30;53.77;98723.69;5063730;23;20041;-92
2022/07/25 06:35:17;;;;;;;193.15;65.93;;;;;;;25.21;54.06;98720.63;5070679;23;20113;-91
2022/07/25 06:37:58;;;;;;;414.90;223.73;;;;;;;25.23;54.81;98721.00;5055307;23;20121;-95
2022/07/25 06:40:34;;;;;;;225.88;88.35;;;;;;;25.18;51.79;98720.72;4997136;28;20094;-95
2022/07/25 06:43:01;;;;;;;1672.55;745.30;;;;;;;25.45;51.81;98774.56;4964936;28;20044;-90
2022/07/25 06:45:27;;;;;;;369.50;173.55;;;;;;;25.13;51.67;98712.78;4987783;23;20034;-94
2022/07/25 06:48:27;;;;;;;254.70;87.93;;;;;;;25.68;52.67;98775.78;4957960;29;20047;-92
2022/07/25 06:50:57;;;;;;;67.38;20.70;;;;;;;25.61;50.75;98768.28;4973467;28;20042;-92
2022/07/25 06:53:36;;;;;;;554.08;265.58;;;;;;;25.71;51.41;98763.72;4959269;28;20039;-96
2022/07/25 06:56:40;;;;;;;52.90;17.38;;;;;;;25.37;50.77;98714.38;4982261;28;20462;-91
2022/07/25 06:59:14;;;;;;;47.15;16.65;;;;;;;25.61;52.27;98751.50;4997665;28;20089;-91
2022/07/25 07:01:49;;;;;;;1353.13;620.08;;;;;;;25.92;54.29;98782.91;4976034;28;20039;-93
2022/07/25 07:04:16;;;;;;;750.95;364.08;;;;;;;25.82;53.94;98746.75;4979267;28;20054;-91
2022/07/25 07:07:04;;;;;;;92.45;35.58;;;;;;;25.96;51.47;98783.66;5005446;23;20054;-92
2022/07/25 07:09:31;;;;;;;1719.60;720.63;;;;;;;25.71;52.06;98724.53;4990256;23;20165;-95
2022/07/25 07:12:57;;;;;;;1999.90;915.03;;;;;;;26.23;53.01;98791.13;4983547;28;20018;-92
2022/07/25 07:15:36;;;;;;;965.35;481.90;;;;;;;25.75;52.72;98720.41;5019639;22;20053;-91
2022/07/25 07:18:35;;;;;;;1296.90;640.55;;;;;;;26.17;53.81;98788.03;4963129;28;20057;-92
2022/07/25 07:21:05;;;;;;;1999.90;999.90;;;;;;;26.07;52.16;98761.03;4965881;28;20034;-96
2022/07/25 07:23:53;;;;;;;611.03;263.27;;;;;;;26.05;52.70;98727.06;4993152;23;20026;-95
2022/07/25 07:26:19;;;;;;;1999.90;999.90;;;;;;;26.00;54.14;98716.38;4963194;23;20034;-91
2022/07/25 07:28:48;;;;;;;1999.78;725.30;;;;;;;26.38;53.40;98784.00;4996379;23;20041;-94
2022/07/25 07:31:40;;;;;;;1999.90;999.90;;;;;;;26.46;52.47;98798.66;4986900;28;20053;-93
2022/07/25 07:34:40;;;;;;;1593.72;825.45;;;;;;;26.51;52.48;98794.56;4943042;28;20047;-93
2022/07/25 07:37:14;;;;;;;1999.90;999.90;;;;;;;26.48;51.33;98771.78;4922660;28;20040;-91
2022/07/25 07:40:03;;;;;;;1999.90;999.90;;;;;;;26.90;50.63;98788.09;4975304;23;20049;-91
2022/07/25 07:45:52;;;;;;;1999.90;999.90;;;;;;;27.00;50.47;98775.03;4980655;23;20054;-93
2022/07/25 07:48:19;;;;;;;329.35;102.50;;;;;;;27.11;48.88;98793.19;4992602;28;20031;-90
2022/07/25 07:57:48;;;;;;;181.90;92.45;;;;;;;26.82;49.86;98731.38;5041214;28;20052;-93
2022/07/25 08:03:23;;;;;;;208.23;75.53;;;;;;;26.71;50.38;98747.66;5055962;22;20042;-94
2022/07/25 08:05:50;;;;;;;81.85;50.83;;;;;;;26.79;51.42;98777.13;4997960;28;20050;-94
2022/07/25 08:08:27;;;;;;;30.40;19.05;;;;;;;26.58;51.67;98743.97;5021073;23;20038;-96
2022/07/25 08:11:17;;;;;;;26.10;13.88;;;;;;;26.50;49.80;98742.56;4989478;28;20045;-96
2022/07/25 08:13:49;;;;;;;28.27;14.75;;;;;;;26.52;50.15;98752.09;4934015;28;20617;-96
2022/07/25 08:16:18;;;;;;;26.77;13.77;;;;;;;26.95;50.89;98787.56;4987431;28;20171;-95
2022/07/25 08:21:46;;;;;;;30.50;14.43;;;;;;;26.84;50.61;98785.00;4961053;28;20053;-90
2022/07/25 08:24:13;;;;;;;29.15;14.85;;;;;;;26.67;50.15;98778.59;5058956;23;20076;-95
2022/07/25 08:26:39;;;;;;;1999.90;818.00;;;;;;;26.44;50.40;98750.66;4965317;28;20042;-93
2022/07/25 08:29:57;;;;;;;117.28;46.75;;;;;;;26.70;50.97;98791.75;4968166;28;20038;-96
2022/07/25 08:32:23;;;;;;;762.17;465.50;;;;;;;26.52;51.19;98746.47;4955361;28;20049;-96
2022/07/25 08:34:50;;;;;;;55.72;19.45;;;;;;;26.82;50.07;98776.25;4950780;28;20030;-95
2022/07/25 08:37:16;;;;;;;32.97;14.88;;;;;;;26.74;50.15;98760.81;4948092;28;20050;-94
2022/07/25 08:39:43;;;;;;;29.80;14.35;;;;;;;26.71;49.77;98770.09;4948116;28;20141;-94
2022/07/25 08:42:22;;;;;;;25.85;13.93;;;;;;;26.67;49.96;98755.38;4946722;28;20046;-94
2022/07/25 08:48:09;;;;;;;33.55;14.55;;;;;;;26.65;49.20;98758.59;4963791;28;20140;-94
2022/07/25 08:51:02;;;;;;;30.20;14.18;;;;;;;27.14;49.37;98797.94;5004000;23;20050;-95
2022/07/25 08:53:32;;;;;;;27.85;14.40;;;;;;;26.94;48.56;98757.94;4940774;28;20523;-94
2022/07/25 08:55:59;;;;;;;710.47;324.20;;;;;;;27.11;50.08;98770.72;4913914;29;20281;-94
2022/07/25 08:58:41;;;;;;;98.07;50.13;;;;;;;27.36;51.50;98795.41;4927356;29;20047;-96
2022/07/25 09:01:32;;;;;;;48.35;24.50;;;;;;;27.30;50.88;98799.97;4914085;29;20052;-96
2022/07/25 09:04:20;;;;;;;35.47;21.63;;;;;;;26.87;50.39;98741.28;4942424;29;20047;-94
2022/07/25 09:06:50;;;;;;;32.88;15.00;;;;;;;26.71;49.32;98719.63;4907496;29;20143;-95
2022/07/25 09:09:17;;;;;;;30.13;15.38;;;;;;;27.01;50.89;98771.78;4880725;29;20063;-96
2022/07/25 09:12:02;;;;;;;32.15;15.38;;;;;;;26.76;50.19;98718.31;4919822;29;20051;-93
2022/07/25 09:15:50;;;;;;;25.55;14.85;;;;;;;27.19;49.28;98777.00;4958029;23;20054;-94
2022/07/25 09:18:39;;;;;;;24.23;14.88;;;;;;;27.19;51.04;98777.00;5105593;23;20061;-92
2022/07/25 09:21:12;;;;;;;25.73;15.18;;;;;;;27.10;50.27;98760.75;5133250;23;20065;-90
2022/07/25 09:23:39;;;;;;;42.30;15.13;;;;;;;27.11;49.97;98753.13;5006041;28;20056;-95
2022/07/25 09:26:13;;;;;;;30.58;13.82;;;;;;;26.98;50.37;98736.19;4941084;29;20104;-94
2022/07/25 09:29:42;;;;;;;29.95;14.05;;;;;;;27.24;49.82;98781.28;4963989;29;20085;-92
2022/07/25 09:33:07;;;;;;;22.17;14.27;;;;;;;27.02;49.15;98780.97;4940413;29;20027;-96
2022/07/25 09:36:18;;;;;;;23.10;13.35;;;;;;;27.02;49.27;98778.19;4919521;29;20048;-96
2022/07/25 09:38:59;;;;;;;252.00;94.57;;;;;;;26.83;49.09;98760.22;4952580;29;20027;-96
2022/07/25 09:41:37;;;;;;;123.10;54.28;;;;;;;26.95;48.13;98773.53;4930383;29;20122;-96
2022/07/25 09:44:34;;;;;;;43.75;19.40;;;;;;;26.73;48.78;98756.44;4931588;28;20019;-93
2022/07/25 09:47:39;;;;;;;368.83;124.97;;;;;;;26.82;48.81;98755.81;4987593;23;20040;-91
2022/07/25 09:50:17;;;;;;;34.85;14.45;;;;;;;26.68;48.50;98749.31;4991898;28;20055;-96
2022/07/25 09:53:00;;;;;;;455.60;291.88;;;;;;;26.92;48.86;98783.63;5088926;23;20058;31
2022/07/25 09:56:19;;;;;;;32.20;16.60;;;;;;;26.87;48.24;98755.31;4964318;28;20051;-91
2022/07/25 09:58:51;;;;;;;25.95;13.52;;;;;;;27.01;46.40;98734.53;5087576;23;20049;-93
2022/07/25 10:02:15;;;;;;;65.80;16.55;;;;;;;27.34;47.48;98769.00;5001399;28;20053;-92
2022/07/25 10:09:00;;;;;;;25.20;12.65;;;;;;;27.57;46.62;98768.78;5061730;23;20045;-95
2022/07/25 10:12:16;;;;;;;;;;;;;;;27.21;48.21;98698.78;4990711;23;15113893;-96
2022/07/25 10:15:28;;;;;;;497.17;237.38;;;;;;;27.50;46.34;98726.09;5008808;22;19930;-95
2022/07/25 10:18:30;;;;;;;153.77;57.95;;;;;;;27.77;44.88;98768.69;5027154;23;20065;-94
2022/07/25 10:24:25;;;;;;;40.10;18.48;;;;;;;27.83;47.20;98752.88;1548512;22;20355;-91
2022/07/25 10:30:57;;;;;;;23.40;12.65;;;;;;;27.74;47.41;98761.13;5175927;23;20047;31
2022/07/25 10:33:51;;;;;;;22.40;13.02;;;;;;;27.79;46.15;98765.44;5065324;22;19993;31
2022/07/25 10:36:22;;;;;;;19.83;12.60;;;;;;;27.65;47.14;98738.53;4899714;29;20083;-96
2022/07/25 10:38:56;;;;;;;28.05;12.25;;;;;;;27.61;47.06;98721.75;4934096;29;20082;-94
2022/07/25 10:41:27;;;;;;;121.82;87.70;;;;;;;27.50;47.39;98709.25;4990139;23;20054;-96
2022/07/25 10:44:17;;;;;;;46.95;16.33;;;;;;;27.81;46.63;98746.13;4956689;28;20061;-96
2022/07/25 10:47:12;;;;;;;26.25;13.35;;;;;;;27.96;46.76;98766.97;4944141;28;20030;-92
2022/07/25 10:49:50;;;;;;;40.65;14.43;;;;;;;27.77;46.36;98737.78;4944753;28;20057;-95
2022/07/25 10:52:41;;;;;;;28.38;13.43;;;;;;;27.95;46.25;98765.41;4958628;28;20042;-95
2022/07/25 10:58:05;;;;;;;31.45;18.55;;;;;;;28.04;46.73;98762.72;5109560;23;20042;-92
2022/07/25 11:00:46;;;;;;;739.30;347.77;;;;;;;27.75;46.34;98706.53;4993647;28;20038;-95
2022/07/25 11:03:33;;;;;;;1918.18;823.03;;;;;;;28.12;48.11;98723.97;4967445;28;20022;-93
2022/07/25 11:07:13;;;;;;;108.75;57.95;;;;;;;27.94;45.71;98687.16;4995865;28;20289;-95
2022/07/25 11:10:53;;;;;;;43.53;23.92;;;;;;;28.32;45.17;98740.66;4957338;28;20070;-95
2022/07/25 11:19:55;;;;;;;26.88;15.07;;;;;;;28.39;44.57;98734.84;5187004;22;20034;-96
2022/07/25 11:30:04;;;;;;;222.40;106.72;;;;;;;28.37;45.92;98695.09;5060328;23;20046;-94
2022/07/25 11:43:21;;;;;;;29.40;15.10;;;;;;;28.87;44.18;98732.91;5030434;28;20049;-96
2022/07/25 11:46:14;;;;;;;33.17;15.23;;;;;;;28.76;43.41;98721.22;4986757;28;20026;-92
2022/07/25 11:56:22;;;;;;;22.30;13.82;;;;;;;27.78;45.13;98649.50;5040404;23;20061;-93
2022/07/25 11:59:24;;;;;;;30.75;14.75;;;;;;;27.70;45.88;98670.56;4959977;28;20033;-93
2022/07/25 12:02:03;;;;;;;30.30;14.18;;;;;;;27.37;46.00;98665.06;4956834;28;20038;-95
2022/07/25 12:04:31;;;;;;;30.58;14.30;;;;;;;27.51;46.55;98649.06;5029822;23;20474;-94
2022/07/25 12:07:24;;;;;;;20.48;13.15;;;;;;;27.91;45.82;98674.78;4978398;28;20041;-95
2022/07/25 12:14:09;;;;;;;114.80;65.78;;;;;;;28.45;43.62;98673.22;5224034;23;20445;-93
2022/07/25 12:16:46;;;;;;;625.33;319.70;;;;;;;28.09;45.45;98644.16;4934865;29;20031;-93
2022/07/25 12:19:52;;;;;;;344.88;169.15;;;;;;;28.73;46.08;98672.28;4914846;29;20098;-92
2022/07/25 12:28:48;;;;;;;19.50;12.32;;;;;;;29.45;40.70;98704.44;5206020;22;20101;-92
2022/07/25 12:31:19;;;;;;;56.80;27.55;;;;;;;29.27;40.04;98653.59;5084027;23;20038;-93
2022/07/25 12:44:35;;;;;;;87.13;55.55;;;;;;;29.29;40.30;98645.50;5032386;23;20054;-96
2022/07/25 12:57:46;;;;;;;33.83;12.32;;;;;;;29.71;40.11;98690.28;5005641;28;20085;-96
2022/07/25 13:03:25;;;;;;;;;;;;;;;;;;;;;
2022/07/25 13:33:42;;;;;;;24.63;14.00;;;;;;;30.31;38.20;98697.72;5010342;23;20122;-91
2022/07/25 13:44:49;;;;;;;103.22;39.33;;;;;;;30.22;39.26;98697.66;5002645;28;20065;-93
2022/07/25 13:47:34;;;;;;;1999.90;999.90;;;;;;;29.73;40.21;98635.06;4972861;28;20118;-96
2022/07/25 13:50:33;;;;;;;581.53;321.65;;;;;;;29.96;39.49;98661.16;5006858;23;20459;-95
2022/07/25 13:54:18;;;;;;;558.88;276.58;;;;;;;30.17;40.17;98688.53;4963324;28;20050;-95
2022/07/25 14:01:43;;;;;;;15.95;10.05;;;;;;;29.48;40.01;98632.34;4862425;29;20439;-92
2022/07/25 14:57:50;;;;;;;213.18;85.38;;;;;;;30.14;39.60;98678.19;5258139;23;20058;-92
2022/07/25 15:01:24;;;;;;;157.55;98.18;;;;;;;29.85;38.75;98684.13;5002608;28;20056;-95
2022/07/25 15:19:24;;;;;;;23.83;9.02;;;;;;;29.50;41.10;98694.63;4978650;28;20504;-94
2022/07/25 15:22:41;;;;;;;24.58;13.32;;;;;;;29.43;42.37;98687.22;4934899;29;20047;-92
2022/07/25 15:25:53;;;;;;;55.35;32.03;;;;;;;29.40;40.76;98676.06;4954171;28;20523;-95
2022/07/25 15:29:08;;;;;;;22.88;9.32;;;;;;;29.21;40.09;98650.59;4944027;29;20051;-95
2022/07/25 15:34:25;;;;;;;21.17;8.52;;;;;;;28.90;40.63;98674.97;4980062;28;20047;-90
2022/07/25 15:36:57;;;;;;;86.47;18.17;;;;;;;28.98;41.92;98729.78;4963638;28;20042;-93
2022/07/25 15:39:27;;;;;;;1571.60;785.65;;;;;;;28.72;43.95;98741.03;4957508;23;20058;-93
2022/07/25 15:41:53;;;;;;;1999.90;920.30;;;;;;;28.22;45.82;98703.19;4975165;28;20046;-90
2022/07/25 15:44:24;;;;;;;177.40;73.00;;;;;;;28.13;47.94;98742.41;4977525;28;20089;-93
2022/07/25 15:46:56;;;;;;;118.88;31.52;;;;;;;27.62;48.04;98733.78;4960996;28;20046;-91
2022/07/25 15:49:27;;;;;;;1430.00;494.52;;;;;;;27.07;49.83;98718.75;4955848;28;20137;-91
2022/07/25 15:52:04;;;;;;;1999.90;999.90;;;;;;;27.13;50.94;98765.50;4966393;23;20046;-94
2022/07/25 15:54:35;;;;;;;88.57;38.05;;;;;;;26.69;51.52;98750.91;4963731;28;20089;-94
2022/07/25 16:04:31;;;;;;;66.57;15.90;;;;;;;25.31;57.49;98769.22;5219422;23;20059;-92
2022/07/25 16:10:31;;;;;;;65.72;15.70;;;;;;;25.03;57.51;98776.84;4940557;29;20047;-92